sensor_id;sensor_type;location;lat;lon;timestamp;pressure;altitude;pressure_sealevel;temperature;humidity
79544;BME280;68994;47.176;7.534;2023-09-12T00:01:19;95761.53;;;18.36;70.80
79544;BME280;68994;47.176;7.534;2023-09-12T00:03:46;95772.63;;;18.34;71.40
79544;BME280;68994;47.176;7.534;2023-09-12T00:06:12;95767.72;;;18.36;70.82
79544;BME280;68994;47.176;7.534;2023-09-12T00:08:39;95775.19;;;18.40;71.23
79544;BME280;68994;47.176;7.534;2023-09-12T00:11:07;95764.41;;;18.48;70.47
79544;BME280;68994;47.176;7.534;2023-09-12T00:13:37;95760.31;;;18.60;69.26
79544;BME280;68994;47.176;7.534;2023-09-12T00:16:05;95776.06;;;18.58;70.41
79544;BME280;68994;47.176;7.534;2023-09-12T00:18:32;95781.47;;;18.66;69.54
79544;BME280;68994;47.176;7.534;2023-09-12T00:20:59;95773.50;;;18.61;69.62
79544;BME280;68994;47.176;7.534;2023-09-12T00:23:26;95787.16;;;18.47;70.70
79544;BME280;68994;47.176;7.534;2023-09-12T00:25:53;95787.44;;;18.37;71.42
79544;BME280;68994;47.176;7.534;2023-09-12T00:28:20;95783.59;;;18.29;72.03
79544;BME280;68994;47.176;7.534;2023-09-12T00:30:48;95777.53;;;18.24;71.77
79544;BME280;68994;47.176;7.534;2023-09-12T00:33:15;95779.56;;;18.18;71.42
79544;BME280;68994;47.176;7.534;2023-09-12T00:35:43;95784.47;;;18.16;72.32
79544;BME280;68994;47.176;7.534;2023-09-12T00:38:09;95784.47;;;18.16;71.93
79544;BME280;68994;47.176;7.534;2023-09-12T00:40:36;95798.13;;;18.11;72.21
79544;BME280;68994;47.176;7.534;2023-09-12T00:43:03;95795.75;;;18.18;71.48
79544;BME280;68994;47.176;7.534;2023-09-12T00:45:30;95790.22;;;18.23;71.37
79544;BME280;68994;47.176;7.534;2023-09-12T00:47:59;95784.19;;;18.17;72.00
79544;BME280;68994;47.176;7.534;2023-09-12T00:50:28;95785.41;;;18.11;72.72
79544;BME280;68994;47.176;7.534;2023-09-12T00:52:57;95778.25;;;18.07;72.84
79544;BME280;68994;47.176;7.534;2023-09-12T00:55:24;95784.41;;;17.98;73.47
79544;BME280;68994;47.176;7.534;2023-09-12T00:57:51;95783.06;;;17.87;73.24
79544;BME280;68994;47.176;7.534;2023-09-12T01:00:18;95789.50;;;17.77;73.46
79544;BME280;68994;47.176;7.534;2023-09-12T01:02:46;95788.72;;;17.77;73.74
79544;BME280;68994;47.176;7.534;2023-09-12T01:05:16;95786.50;;;17.79;73.67
79544;BME280;68994;47.176;7.534;2023-09-12T01:07:43;95791.41;;;17.77;73.64
79544;BME280;68994;47.176;7.534;2023-09-12T01:10:10;95788.34;;;17.70;73.92
79544;BME280;68994;47.176;7.534;2023-09-12T01:12:37;95792.16;;;17.69;74.03
79544;BME280;68994;47.176;7.534;2023-09-12T01:15:04;95790.94;;;17.75;73.70
79544;BME280;68994;47.176;7.534;2023-09-12T01:17:36;95784.78;;;17.83;73.95
79544;BME280;68994;47.176;7.534;2023-09-12T01:20:05;95774.28;;;17.82;73.22
79544;BME280;68994;47.176;7.534;2023-09-12T01:26:00;95786.66;;;17.83;74.00
79544;BME280;68994;47.176;7.534;2023-09-12T01:28:30;95779.38;;;17.83;73.69
79544;BME280;68994;47.176;7.534;2023-09-12T01:31:00;95786.50;;;17.79;73.96
79544;BME280;68994;47.176;7.534;2023-09-12T01:33:28;95778.19;;;17.67;73.75
79544;BME280;68994;47.176;7.534;2023-09-12T01:35:54;95784.44;;;17.53;74.59
79544;BME280;68994;47.176;7.534;2023-09-12T01:38:22;95787.00;;;17.58;74.49
79544;BME280;68994;47.176;7.534;2023-09-12T01:40:49;95790.31;;;17.55;74.71
79544;BME280;68994;47.176;7.534;2023-09-12T01:43:18;95788.22;;;17.52;75.28
79544;BME280;68994;47.176;7.534;2023-09-12T01:45:47;95787.88;;;17.45;75.06
79544;BME280;68994;47.176;7.534;2023-09-12T01:48:17;95785.78;;;17.42;75.29
79544;BME280;68994;47.176;7.534;2023-09-12T01:50:45;95786.75;;;17.46;74.97
79544;BME280;68994;47.176;7.534;2023-09-12T01:53:12;95795.66;;;17.47;74.77
79544;BME280;68994;47.176;7.534;2023-09-12T01:55:39;95793.56;;;17.43;74.73
79544;BME280;68994;47.176;7.534;2023-09-12T01:58:07;95799.63;;;17.49;73.94
79544;BME280;68994;47.176;7.534;2023-09-12T02:00:34;95799.03;;;17.52;73.87
79544;BME280;68994;47.176;7.534;2023-09-12T02:03:03;95802.84;;;17.51;75.04
79544;BME280;68994;47.176;7.534;2023-09-12T02:05:30;95800.50;;;17.58;74.37
79544;BME280;68994;47.176;7.534;2023-09-12T02:07:57;95800.38;;;17.64;74.37
79544;BME280;68994;47.176;7.534;2023-09-12T02:10:25;95796.19;;;17.57;74.58
79544;BME280;68994;47.176;7.534;2023-09-12T02:12:52;95801.59;;;17.57;74.39
79544;BME280;68994;47.176;7.534;2023-09-12T02:15:18;95792.41;;;17.58;74.98
79544;BME280;68994;47.176;7.534;2023-09-12T02:17:45;95791.72;;;17.53;75.64
79544;BME280;68994;47.176;7.534;2023-09-12T02:20:13;95804.41;;;17.52;75.94
79544;BME280;68994;47.176;7.534;2023-09-12T02:22:40;95799.81;;;17.53;75.75
79544;BME280;68994;47.176;7.534;2023-09-12T02:25:07;95789.22;;;17.56;75.55
79544;BME280;68994;47.176;7.534;2023-09-12T02:27:34;95793.25;;;17.68;75.09
79544;BME280;68994;47.176;7.534;2023-09-12T02:30:01;95792.75;;;17.66;75.50
79544;BME280;68994;47.176;7.534;2023-09-12T02:32:28;95801.66;;;17.66;75.17
79544;BME280;68994;47.176;7.534;2023-09-12T02:34:55;95799.81;;;17.75;75.14
79544;BME280;68994;47.176;7.534;2023-09-12T02:37:23;95789.50;;;17.77;75.20
79544;BME280;68994;47.176;7.534;2023-09-12T02:39:50;95789.53;;;17.86;75.15
79544;BME280;68994;47.176;7.534;2023-09-12T02:42:16;95790.88;;;17.89;74.96
79544;BME280;68994;47.176;7.534;2023-09-12T02:44:43;95797.06;;;17.89;75.30
79544;BME280;68994;47.176;7.534;2023-09-12T02:47:10;95791.66;;;17.89;74.49
79544;BME280;68994;47.176;7.534;2023-09-12T02:49:36;95796.97;;;17.80;75.44
79544;BME280;68994;47.176;7.534;2023-09-12T02:52:03;95800.28;;;17.77;75.37
79544;BME280;68994;47.176;7.534;2023-09-12T02:54:31;95802.16;;;17.68;75.67
79544;BME280;68994;47.176;7.534;2023-09-12T02:56:58;95792.50;;;17.76;74.90
79544;BME280;68994;47.176;7.534;2023-09-12T02:59:24;95793.75;;;17.70;75.87
79544;BME280;68994;47.176;7.534;2023-09-12T03:01:50;95790.72;;;17.71;75.47
79544;BME280;68994;47.176;7.534;2023-09-12T03:04:17;95794.38;;;17.67;76.00
79544;BME280;68994;47.176;7.534;2023-09-12T03:06:43;95790.94;;;17.75;74.22
79544;BME280;68994;47.176;7.534;2023-09-12T03:09:10;95786.38;;;17.84;74.19
79544;BME280;68994;47.176;7.534;2023-09-12T03:11:38;95784.28;;;17.81;75.05
79544;BME280;68994;47.176;7.534;2023-09-12T03:14:04;95785.84;;;17.73;74.93
79544;BME280;68994;47.176;7.534;2023-09-12T03:16:31;95785.59;;;17.61;75.63
79544;BME280;68994;47.176;7.534;2023-09-12T03:18:58;95783.63;;;17.53;75.74
79544;BME280;68994;47.176;7.534;2023-09-12T03:21:26;95777.06;;;17.45;76.08
79544;BME280;68994;47.176;7.534;2023-09-12T03:23:53;95780.50;;;17.37;76.63
79544;BME280;68994;47.176;7.534;2023-09-12T03:26:19;95780.44;;;17.28;76.92
79544;BME280;68994;47.176;7.534;2023-09-12T03:28:48;95790.53;;;17.22;76.87
79544;BME280;68994;47.176;7.534;2023-09-12T03:31:15;95776.19;;;17.13;77.32
79544;BME280;68994;47.176;7.534;2023-09-12T03:33:43;95775.63;;;17.02;77.38
79544;BME280;68994;47.176;7.534;2023-09-12T03:36:13;95784.00;;;17.01;77.25
79544;BME280;68994;47.176;7.534;2023-09-12T03:38:40;95784.63;;;16.98;77.27
79544;BME280;68994;47.176;7.534;2023-09-12T03:41:06;95787.75;;;16.91;77.46
79544;BME280;68994;47.176;7.534;2023-09-12T03:43:33;95779.22;;;16.84;78.64
79544;BME280;68994;47.176;7.534;2023-09-12T03:46:01;95779.03;;;16.80;78.39
79544;BME280;68994;47.176;7.534;2023-09-12T03:48:28;95773.84;;;16.84;78.39
79544;BME280;68994;47.176;7.534;2023-09-12T03:50:56;95762.28;;;16.83;77.73
79544;BME280;68994;47.176;7.534;2023-09-12T03:53:22;95771.69;;;16.86;77.87
79544;BME280;68994;47.176;7.534;2023-09-12T03:55:49;95761.09;;;16.90;77.93
79544;BME280;68994;47.176;7.534;2023-09-12T03:58:15;95763.91;;;16.84;77.32
79544;BME280;68994;47.176;7.534;2023-09-12T04:00:42;95761.69;;;16.86;77.64
79544;BME280;68994;47.176;7.534;2023-09-12T04:03:10;95756.00;;;16.88;77.24
79544;BME280;68994;47.176;7.534;2023-09-12T04:05:37;95765.75;;;16.84;78.02
79544;BME280;68994;47.176;7.534;2023-09-12T04:08:04;95763.28;;;16.74;78.18
79544;BME280;68994;47.176;7.534;2023-09-12T04:10:30;95763.47;;;16.77;78.30
79544;BME280;68994;47.176;7.534;2023-09-12T04:12:58;95765.69;;;16.75;78.44
79544;BME280;68994;47.176;7.534;2023-09-12T04:15:25;95769.28;;;16.70;78.96
79544;BME280;68994;47.176;7.534;2023-09-12T04:17:51;95775.19;;;16.73;78.83
79544;BME280;68994;47.176;7.534;2023-09-12T04:20:20;95782.34;;;16.77;78.44
79544;BME280;68994;47.176;7.534;2023-09-12T04:22:46;95785.84;;;16.78;78.35
79544;BME280;68994;47.176;7.534;2023-09-12T04:25:13;95782.47;;;16.86;78.34
79544;BME280;68994;47.176;7.534;2023-09-12T04:27:41;95787.22;;;17.03;77.30
79544;BME280;68994;47.176;7.534;2023-09-12T04:30:08;95787.72;;;17.05;77.44
79544;BME280;68994;47.176;7.534;2023-09-12T04:32:35;95785.38;;;17.12;77.68
79544;BME280;68994;47.176;7.534;2023-09-12T04:35:02;95796.09;;;17.40;76.34
79544;BME280;68994;47.176;7.534;2023-09-12T04:37:30;95786.00;;;17.54;76.43
79544;BME280;68994;47.176;7.534;2023-09-12T04:39:57;95790.44;;;17.50;77.34
79544;BME280;68994;47.176;7.534;2023-09-12T04:42:24;95784.63;;;17.57;76.90
79544;BME280;68994;47.176;7.534;2023-09-12T04:44:51;95791.53;;;17.72;76.26
79544;BME280;68994;47.176;7.534;2023-09-12T04:47:17;95792.19;;;17.77;76.72
79544;BME280;68994;47.176;7.534;2023-09-12T04:49:44;95798.91;;;17.80;77.12
79544;BME280;68994;47.176;7.534;2023-09-12T04:52:11;95797.91;;;17.76;77.37
79544;BME280;68994;47.176;7.534;2023-09-12T04:54:39;95789.50;;;17.77;77.11
79544;BME280;68994;47.176;7.534;2023-09-12T04:57:07;95788.72;;;17.77;76.49
79544;BME280;68994;47.176;7.534;2023-09-12T04:59:33;95799.84;;;17.84;75.93
79544;BME280;68994;47.176;7.534;2023-09-12T05:02:00;95785.72;;;17.78;76.81
79544;BME280;68994;47.176;7.534;2023-09-12T05:04:27;95798.19;;;17.74;77.22
79544;BME280;68994;47.176;7.534;2023-09-12T05:06:54;95799.75;;;17.67;76.72
79544;BME280;68994;47.176;7.534;2023-09-12T05:09:20;95799.38;;;17.59;76.78
79544;BME280;68994;47.176;7.534;2023-09-12T05:11:49;95799.81;;;17.53;77.11
79544;BME280;68994;47.176;7.534;2023-09-12T05:14:16;95786.88;;;17.41;76.94
79544;BME280;68994;47.176;7.534;2023-09-12T05:16:43;95793.56;;;17.43;77.34
79544;BME280;68994;47.176;7.534;2023-09-12T05:19:09;95784.00;;;17.37;77.23
79544;BME280;68994;47.176;7.534;2023-09-12T05:21:36;95788.78;;;17.40;77.64
79544;BME280;68994;47.176;7.534;2023-09-12T05:24:04;95792.09;;;17.37;77.73
79544;BME280;68994;47.176;7.534;2023-09-12T05:26:31;95792.56;;;17.39;77.49
79544;BME280;68994;47.176;7.534;2023-09-12T05:28:59;95796.69;;;17.37;78.32
79544;BME280;68994;47.176;7.534;2023-09-12T05:31:25;95767.00;;;17.14;78.38
79544;BME280;68994;47.176;7.534;2023-09-12T05:33:52;95796.81;;;17.32;78.76
79544;BME280;68994;47.176;7.534;2023-09-12T05:36:18;95803.78;;;17.33;78.60
79544;BME280;68994;47.176;7.534;2023-09-12T05:38:45;95803.88;;;17.41;77.52
79544;BME280;68994;47.176;7.534;2023-09-12T05:41:12;95795.06;;;17.50;76.74
79544;BME280;68994;47.176;7.534;2023-09-12T05:43:38;95801.41;;;17.54;77.03
79544;BME280;68994;47.176;7.534;2023-09-12T05:46:06;95799.72;;;17.58;76.31
79544;BME280;68994;47.176;7.534;2023-09-12T05:48:33;95802.19;;;17.54;77.27
79544;BME280;68994;47.176;7.534;2023-09-12T05:51:00;95808.22;;;17.51;78.04
79544;BME280;68994;47.176;7.534;2023-09-12T05:53:26;95798.06;;;17.48;77.97
79544;BME280;68994;47.176;7.534;2023-09-12T05:55:53;95802.03;;;17.51;78.33
79544;BME280;68994;47.176;7.534;2023-09-12T05:58:21;95799.19;;;17.56;78.30
79544;BME280;68994;47.176;7.534;2023-09-12T06:00:47;95799.88;;;17.61;78.14
79544;BME280;68994;47.176;7.534;2023-09-12T06:03:15;95799.75;;;17.67;77.72
79544;BME280;68994;47.176;7.534;2023-09-12T06:05:42;95800.28;;;17.77;78.14
79544;BME280;68994;47.176;7.534;2023-09-12T06:08:09;95798.28;;;17.83;78.07
79544;BME280;68994;47.176;7.534;2023-09-12T06:10:36;95805.31;;;17.93;77.68
79544;BME280;68994;47.176;7.534;2023-09-12T06:13:03;95805.41;;;18.02;77.17
79544;BME280;68994;47.176;7.534;2023-09-12T06:15:29;95802.44;;;18.12;75.72
79544;BME280;68994;47.176;7.534;2023-09-12T06:17:56;95802.63;;;18.24;75.84
79544;BME280;68994;47.176;7.534;2023-09-12T06:20:24;95802.88;;;18.45;73.53
79544;BME280;68994;47.176;7.534;2023-09-12T06:22:51;95788.88;;;18.43;73.86
79544;BME280;68994;47.176;7.534;2023-09-12T06:25:18;95805.47;;;18.59;72.79
79544;BME280;68994;47.176;7.534;2023-09-12T06:27:44;95802.13;;;18.62;72.51
79544;BME280;68994;47.176;7.534;2023-09-12T06:30:12;95801.53;;;18.65;73.51
79544;BME280;68994;47.176;7.534;2023-09-12T06:32:39;95806.28;;;18.68;72.99
79544;BME280;68994;47.176;7.534;2023-09-12T06:35:07;95807.41;;;18.76;72.69
79544;BME280;68994;47.176;7.534;2023-09-12T06:37:37;95813.78;;;18.80;72.77
79544;BME280;68994;47.176;7.534;2023-09-12T06:40:05;95812.97;;;18.80;72.44
79544;BME280;68994;47.176;7.534;2023-09-12T06:42:31;95808.19;;;18.77;72.59
79544;BME280;68994;47.176;7.534;2023-09-12T06:44:58;95809.94;;;18.72;74.10
79544;BME280;68994;47.176;7.534;2023-09-12T06:47:25;95805.16;;;18.69;72.92
79544;BME280;68994;47.176;7.534;2023-09-12T06:49:51;95818.69;;;18.69;72.74
79544;BME280;68994;47.176;7.534;2023-09-12T06:52:18;95809.47;;;18.70;73.06
79544;BME280;68994;47.176;7.534;2023-09-12T06:54:46;95809.78;;;18.69;73.31
79544;BME280;68994;47.176;7.534;2023-09-12T06:57:13;95812.19;;;18.70;72.99
79544;BME280;68994;47.176;7.534;2023-09-12T06:59:39;95805.97;;;18.70;73.23
79544;BME280;68994;47.176;7.534;2023-09-12T07:02:06;95815.22;;;18.78;73.19
79544;BME280;68994;47.176;7.534;2023-09-12T07:04:33;95809.97;;;18.81;73.66
79544;BME280;68994;47.176;7.534;2023-09-12T07:07:00;95816.53;;;18.89;73.90
79544;BME280;68994;47.176;7.534;2023-09-12T07:09:26;95818.94;;;18.99;72.84
79544;BME280;68994;47.176;7.534;2023-09-12T07:11:54;95821.34;;;19.09;71.13
79544;BME280;68994;47.176;7.534;2023-09-12T07:14:21;95823.09;;;19.23;72.60
79544;BME280;68994;47.176;7.534;2023-09-12T07:16:49;95817.06;;;19.35;72.43
79544;BME280;68994;47.176;7.534;2023-09-12T07:19:15;95811.47;;;19.49;71.73
79544;BME280;68994;47.176;7.534;2023-09-12T07:21:42;95818.63;;;19.62;70.35
79544;BME280;68994;47.176;7.534;2023-09-12T07:24:09;95822.31;;;19.75;70.34
79544;BME280;68994;47.176;7.534;2023-09-12T07:26:35;95818.50;;;19.85;70.01
79544;BME280;68994;47.176;7.534;2023-09-12T07:29:04;95807.16;;;19.91;70.37
79544;BME280;68994;47.176;7.534;2023-09-12T07:31:31;95822.59;;;20.08;70.71
79544;BME280;68994;47.176;7.534;2023-09-12T07:33:58;95805.03;;;20.14;70.33
79544;BME280;68994;47.176;7.534;2023-09-12T07:36:24;95817.06;;;20.34;69.57
79544;BME280;68994;47.176;7.534;2023-09-12T07:38:51;95815.09;;;20.52;70.15
79544;BME280;68994;47.176;7.534;2023-09-12T07:41:18;95810.88;;;20.72;68.56
79544;BME280;68994;47.176;7.534;2023-09-12T07:43:44;95816.66;;;20.92;67.76
79544;BME280;68994;47.176;7.534;2023-09-12T07:46:12;95812.13;;;21.05;66.67
79544;BME280;68994;47.176;7.534;2023-09-12T07:48:39;95818.09;;;21.19;65.84
79544;BME280;68994;47.176;7.534;2023-09-12T07:51:12;95819.88;;;21.36;64.64
79544;BME280;68994;47.176;7.534;2023-09-12T07:53:40;95817.75;;;21.63;64.87
79544;BME280;68994;47.176;7.534;2023-09-12T07:56:08;95826.03;;;22.00;64.45
79544;BME280;68994;47.176;7.534;2023-09-12T07:58:35;95821.97;;;22.39;64.50
79544;BME280;68994;47.176;7.534;2023-09-12T08:01:05;95821.66;;;22.78;64.49
79544;BME280;68994;47.176;7.534;2023-09-12T08:03:33;95821.09;;;23.09;64.87
79544;BME280;68994;47.176;7.534;2023-09-12T08:06:00;95811.63;;;23.31;62.96
79544;BME280;68994;47.176;7.534;2023-09-12T08:08:26;95816.44;;;23.50;62.27
79544;BME280;68994;47.176;7.534;2023-09-12T08:10:53;95820.81;;;23.67;60.41
79544;BME280;68994;47.176;7.534;2023-09-12T08:13:21;95815.84;;;23.57;58.26
79544;BME280;68994;47.176;7.534;2023-09-12T08:15:48;95817.59;;;23.78;59.57
79544;BME280;68994;47.176;7.534;2023-09-12T08:18:15;95817.69;;;23.81;59.16
79544;BME280;68994;47.176;7.534;2023-09-12T08:20:43;95828.25;;;24.11;58.46
79544;BME280;68994;47.176;7.534;2023-09-12T08:23:10;95826.97;;;24.37;57.77
79544;BME280;68994;47.176;7.534;2023-09-12T08:25:37;95828.25;;;24.55;57.63
79544;BME280;68994;47.176;7.534;2023-09-12T08:28:04;95827.63;;;24.62;57.80
79544;BME280;68994;47.176;7.534;2023-09-12T08:30:31;95825.84;;;24.70;56.53
79544;BME280;68994;47.176;7.534;2023-09-12T08:32:58;95824.16;;;24.81;55.55
79544;BME280;68994;47.176;7.534;2023-09-12T08:35:28;95823.00;;;24.98;56.96
79544;BME280;68994;47.176;7.534;2023-09-12T08:37:56;95830.25;;;25.61;53.07
79544;BME280;68994;47.176;7.534;2023-09-12T08:40:23;95828.06;;;25.90;53.74
79544;BME280;68994;47.176;7.534;2023-09-12T08:42:51;95828.66;;;25.99;51.55
79544;BME280;68994;47.176;7.534;2023-09-12T08:45:19;95822.59;;;25.90;52.73
79544;BME280;68994;47.176;7.534;2023-09-12T08:47:49;95832.81;;;26.78;51.53
79544;BME280;68994;47.176;7.534;2023-09-12T08:50:16;95831.28;;;27.34;50.59
79544;BME280;68994;47.176;7.534;2023-09-12T08:52:44;95832.59;;;27.17;51.96
79544;BME280;68994;47.176;7.534;2023-09-12T08:55:13;95832.97;;;26.66;53.21
79544;BME280;68994;47.176;7.534;2023-09-12T08:57:42;95842.69;;;26.40;53.25
79544;BME280;68994;47.176;7.534;2023-09-12T09:00:10;95836.72;;;26.12;53.48
79544;BME280;68994;47.176;7.534;2023-09-12T09:02:39;95837.56;;;27.35;51.33
79544;BME280;68994;47.176;7.534;2023-09-12T09:05:07;95833.47;;;27.82;49.12
79544;BME280;68994;47.176;7.534;2023-09-12T09:07:35;95831.50;;;28.13;48.18
79544;BME280;68994;47.176;7.534;2023-09-12T09:10:04;95835.16;;;27.90;49.30
79544;BME280;68994;47.176;7.534;2023-09-12T09:12:33;95825.25;;;27.82;48.82
79544;BME280;68994;47.176;7.534;2023-09-12T09:15:21;95832.22;;;28.10;48.77
79544;BME280;68994;47.176;7.534;2023-09-12T09:17:49;95832.16;;;29.37;46.40
79544;BME280;68994;47.176;7.534;2023-09-12T09:20:25;95821.00;;;29.89;45.80
79544;BME280;68994;47.176;7.534;2023-09-12T09:23:00;95818.66;;;29.91;45.83
79544;BME280;68994;47.176;7.534;2023-09-12T09:25:30;95806.13;;;30.11;43.34
79544;BME280;68994;47.176;7.534;2023-09-12T09:27:58;95804.63;;;30.28;43.54
79544;BME280;68994;47.176;7.534;2023-09-12T09:30:39;95799.94;;;30.61;40.43
79544;BME280;68994;47.176;7.534;2023-09-12T09:33:06;95796.69;;;31.56;37.45
79544;BME280;68994;47.176;7.534;2023-09-12T09:35:34;95801.16;;;32.69;34.83
79544;BME280;68994;47.176;7.534;2023-09-12T09:38:00;95795.31;;;33.81;33.07
79544;BME280;68994;47.176;7.534;2023-09-12T09:40:27;95799.50;;;34.51;30.99
79544;BME280;68994;47.176;7.534;2023-09-12T09:42:54;95769.81;;;35.43;26.84
79544;BME280;68994;47.176;7.534;2023-09-12T09:45:23;95784.09;;;36.01;25.99
79544;BME280;68994;47.176;7.534;2023-09-12T09:47:49;95771.84;;;36.68;26.27
79544;BME280;68994;47.176;7.534;2023-09-12T09:50:16;95785.41;;;36.50;25.15
79544;BME280;68994;47.176;7.534;2023-09-12T09:52:43;95781.00;;;37.60;24.64
79544;BME280;68994;47.176;7.534;2023-09-12T09:55:13;95776.13;;;37.35;25.50
79544;BME280;68994;47.176;7.534;2023-09-12T09:57:40;95772.72;;;37.44;24.93
79544;BME280;68994;47.176;7.534;2023-09-12T10:00:06;95790.59;;;38.01;23.64
79544;BME280;68994;47.176;7.534;2023-09-12T10:02:35;95773.72;;;37.66;21.55
79544;BME280;68994;47.176;7.534;2023-09-12T10:05:05;95771.63;;;36.63;24.19
79544;BME280;68994;47.176;7.534;2023-09-12T10:07:33;95774.13;;;36.90;24.14
79544;BME280;68994;47.176;7.534;2023-09-12T10:10:03;95771.84;;;36.52;24.69
79544;BME280;68994;47.176;7.534;2023-09-12T10:12:31;95771.66;;;35.90;25.04
79544;BME280;68994;47.176;7.534;2023-09-12T10:15:00;95764.16;;;36.07;24.31
79544;BME280;68994;47.176;7.534;2023-09-12T10:17:33;95764.09;;;35.74;24.54
79544;BME280;68994;47.176;7.534;2023-09-12T10:20:04;95775.31;;;35.66;24.42
79544;BME280;68994;47.176;7.534;2023-09-12T10:22:37;95776.94;;;35.84;25.10
79544;BME280;68994;47.176;7.534;2023-09-12T10:25:07;95765.88;;;36.53;22.69
79544;BME280;68994;47.176;7.534;2023-09-12T10:27:34;95771.06;;;35.82;23.71
79544;BME280;68994;47.176;7.534;2023-09-12T10:30:01;95765.50;;;35.42;24.71
79544;BME280;68994;47.176;7.534;2023-09-12T10:32:30;95764.88;;;34.09;26.08
79544;BME280;68994;47.176;7.534;2023-09-12T10:34:59;95773.56;;;32.10;29.04
79544;BME280;68994;47.176;7.534;2023-09-12T10:37:29;95779.84;;;31.00;30.85
79544;BME280;68994;47.176;7.534;2023-09-12T10:39:56;95760.13;;;30.01;31.62
79544;BME280;68994;47.176;7.534;2023-09-12T10:42:24;95764.66;;;29.50;33.09
79544;BME280;68994;47.176;7.534;2023-09-12T10:44:54;95768.38;;;29.94;33.88
79544;BME280;68994;47.176;7.534;2023-09-12T10:47:20;95765.91;;;31.65;33.06
79544;BME280;68994;47.176;7.534;2023-09-12T10:49:48;95758.63;;;33.01;29.04
79544;BME280;68994;47.176;7.534;2023-09-12T10:52:23;95766.88;;;34.63;26.97
79544;BME280;68994;47.176;7.534;2023-09-12T10:54:51;95761.97;;;34.47;25.76
79544;BME280;68994;47.176;7.534;2023-09-12T10:57:19;95752.22;;;33.12;28.53
79544;BME280;68994;47.176;7.534;2023-09-12T11:00:10;95754.19;;;32.21;31.07
79544;BME280;68994;47.176;7.534;2023-09-12T11:02:38;95756.22;;;32.06;30.21
79544;BME280;68994;47.176;7.534;2023-09-12T11:05:06;95762.91;;;32.71;29.14
79544;BME280;68994;47.176;7.534;2023-09-12T11:07:44;95758.91;;;34.41;29.93
79544;BME280;68994;47.176;7.534;2023-09-12T11:10:22;95756.44;;;34.70;25.71
79544;BME280;68994;47.176;7.534;2023-09-12T11:12:50;95750.06;;;35.41;27.51
79544;BME280;68994;47.176;7.534;2023-09-12T11:15:19;95750.81;;;35.21;25.98
79544;BME280;68994;47.176;7.534;2023-09-12T11:17:47;95745.78;;;34.45;25.98
79544;BME280;68994;47.176;7.534;2023-09-12T11:20:15;95747.91;;;33.10;31.14
79544;BME280;68994;47.176;7.534;2023-09-12T11:22:44;95742.38;;;33.45;29.84
79544;BME280;68994;47.176;7.534;2023-09-12T11:25:22;95744.00;;;34.04;29.54
79544;BME280;68994;47.176;7.534;2023-09-12T11:28:03;95747.84;;;34.14;27.48
79544;BME280;68994;47.176;7.534;2023-09-12T11:30:30;95743.75;;;34.49;28.52
79544;BME280;68994;47.176;7.534;2023-09-12T11:32:58;95741.50;;;35.72;29.04
79544;BME280;68994;47.176;7.534;2023-09-12T11:35:27;95734.59;;;35.00;25.91
79544;BME280;68994;47.176;7.534;2023-09-12T11:37:55;95725.34;;;35.66;28.84
79544;BME280;68994;47.176;7.534;2023-09-12T11:40:25;95732.47;;;36.40;25.71
79544;BME280;68994;47.176;7.534;2023-09-12T11:42:53;95736.00;;;35.88;25.75
79544;BME280;68994;47.176;7.534;2023-09-12T11:45:20;95745.31;;;35.98;29.78
79544;BME280;68994;47.176;7.534;2023-09-12T11:47:48;95725.97;;;36.11;23.63
79544;BME280;68994;47.176;7.534;2023-09-12T11:50:28;95728.59;;;35.25;26.17
79544;BME280;68994;47.176;7.534;2023-09-12T11:53:00;95725.09;;;35.41;24.35
79544;BME280;68994;47.176;7.534;2023-09-12T11:55:32;95728.88;;;36.56;26.58
79544;BME280;68994;47.176;7.534;2023-09-12T11:57:59;95735.47;;;36.30;28.41
79544;BME280;68994;47.176;7.534;2023-09-12T12:00:25;95718.31;;;35.82;25.84
79544;BME280;68994;47.176;7.534;2023-09-12T12:02:53;95727.38;;;36.52;26.27
79544;BME280;68994;47.176;7.534;2023-09-12T12:05:20;95721.50;;;36.83;26.28
79544;BME280;68994;47.176;7.534;2023-09-12T12:07:47;95726.41;;;36.91;25.30
79544;BME280;68994;47.176;7.534;2023-09-12T12:10:14;95724.78;;;37.53;27.98
79544;BME280;68994;47.176;7.534;2023-09-12T12:12:43;95725.63;;;38.04;24.54
79544;BME280;68994;47.176;7.534;2023-09-12T12:15:11;95719.50;;;37.97;23.61
79544;BME280;68994;47.176;7.534;2023-09-12T12:17:40;95722.50;;;38.02;26.71
79544;BME280;68994;47.176;7.534;2023-09-12T12:20:08;95702.63;;;37.62;24.57
79544;BME280;68994;47.176;7.534;2023-09-12T12:22:36;95721.09;;;38.23;23.83
79544;BME280;68994;47.176;7.534;2023-09-12T12:25:07;95713.94;;;37.97;22.56
79544;BME280;68994;47.176;7.534;2023-09-12T12:27:35;95716.75;;;37.55;22.63
79544;BME280;68994;47.176;7.534;2023-09-12T12:30:06;95707.16;;;37.13;22.24
79544;BME280;68994;47.176;7.534;2023-09-12T12:32:33;95722.25;;;36.67;23.51
79544;BME280;68994;47.176;7.534;2023-09-12T12:35:00;95724.88;;;35.88;23.83
79544;BME280;68994;47.176;7.534;2023-09-12T12:37:29;95706.88;;;35.60;26.20
79544;BME280;68994;47.176;7.534;2023-09-12T12:39:57;95708.97;;;34.68;24.75
79544;BME280;68994;47.176;7.534;2023-09-12T12:42:24;95721.25;;;34.67;24.02
79544;BME280;68994;47.176;7.534;2023-09-12T12:44:53;95689.63;;;34.17;26.17
79544;BME280;68994;47.176;7.534;2023-09-12T12:47:22;95718.94;;;34.15;25.27
79544;BME280;68994;47.176;7.534;2023-09-12T12:49:50;95706.84;;;34.29;24.17
79544;BME280;68994;47.176;7.534;2023-09-12T12:52:22;95714.16;;;34.90;24.06
79544;BME280;68994;47.176;7.534;2023-09-12T12:54:49;95699.03;;;34.71;23.12
79544;BME280;68994;47.176;7.534;2023-09-12T12:57:18;95699.16;;;35.07;23.64
79544;BME280;68994;47.176;7.534;2023-09-12T12:59:46;95704.91;;;34.77;23.42
79544;BME280;68994;47.176;7.534;2023-09-12T13:02:13;95721.88;;;34.79;22.63
79544;BME280;68994;47.176;7.534;2023-09-12T13:04:41;95712.59;;;34.42;23.82
79544;BME280;68994;47.176;7.534;2023-09-12T13:07:08;95708.44;;;34.53;24.60